createdAt,value
2022-11-21T00:00:57.863Z,1.20
2022-11-21T00:01:59.671Z,1.30
2022-11-21T00:03:02.452Z,1.48
2022-11-21T00:04:04.027Z,1.50
2022-11-21T00:05:05.837Z,1.30
2022-11-21T00:06:07.437Z,1.30
2022-11-21T00:07:09.310Z,1.40
2022-11-21T00:08:12.847Z,1.52
2022-11-21T00:09:14.304Z,1.50
2022-11-21T00:10:16.553Z,1.40
2022-11-21T00:11:18.050Z,1.50
2022-11-21T00:12:19.444Z,1.40
2022-11-21T00:13:21.058Z,1.50
2022-11-21T00:14:22.594Z,1.30
2022-11-21T00:15:26.304Z,1.50
2022-11-21T00:16:27.861Z,1.60
2022-11-21T00:17:29.312Z,1.50
2022-11-21T00:18:30.974Z,1.50
2022-11-21T00:19:33.933Z,1.92
2022-11-21T00:20:37.140Z,1.75
2022-11-21T00:21:38.933Z,1.60
2022-11-21T00:22:40.453Z,1.50
2022-11-21T00:23:45.437Z,1.65
2022-11-21T00:24:50.503Z,1.48
2022-11-21T00:25:54.501Z,1.55
2022-11-21T00:26:56.721Z,1.70
2022-11-21T00:27:58.161Z,1.65
2022-11-21T00:28:59.554Z,1.60
2022-11-21T00:30:01.059Z,1.75
2022-11-21T00:31:03.718Z,1.60
2022-11-21T00:32:05.669Z,1.80
2022-11-21T00:33:07.077Z,1.90
2022-11-21T00:34:09.512Z,1.60
2022-11-21T00:35:10.953Z,1.63
2022-11-21T00:36:12.735Z,2.05
2022-11-21T00:37:14.247Z,1.80
2022-11-21T00:38:16.273Z,1.90
2022-11-21T00:39:17.744Z,1.70
2022-11-21T00:40:19.473Z,1.80
2022-11-21T00:41:21.261Z,1.83
2022-11-21T00:42:22.731Z,1.90
2022-11-21T00:43:24.236Z,1.92
2022-11-21T00:44:26.032Z,2.13
2022-11-21T00:45:27.751Z,1.70
2022-11-21T00:46:29.571Z,1.92
2022-11-21T00:47:31.004Z,1.90
2022-11-21T00:48:33.002Z,1.83
2022-11-21T00:49:34.525Z,1.70
2022-11-21T00:50:35.938Z,1.70
2022-11-21T00:51:37.736Z,2.10
2022-11-21T00:52:39.197Z,1.83
2022-11-21T00:53:40.874Z,1.70
2022-11-21T00:54:42.319Z,2.03
2022-11-21T00:55:44.163Z,1.80
2022-11-21T00:56:45.615Z,2.17
2022-11-21T00:57:47.046Z,1.90
2022-11-21T00:58:48.453Z,1.75
2022-11-21T00:59:49.875Z,1.90
2022-11-21T01:00:51.835Z,1.90
2022-11-21T01:01:53.678Z,2.08
2022-11-21T01:02:55.205Z,1.65
2022-11-21T01:03:58.534Z,2.22
2022-11-21T01:04:59.973Z,1.73
2022-11-21T01:06:13.269Z,1.90
2022-11-21T01:07:15.420Z,2.08
2022-11-21T01:08:16.998Z,1.85
2022-11-21T01:09:18.436Z,1.80
2022-11-21T01:10:19.998Z,1.60
2022-11-21T01:11:21.770Z,1.50
2022-11-21T01:12:23.322Z,1.83
2022-11-21T01:13:24.993Z,1.83
2022-11-21T01:14:26.950Z,1.90
2022-11-21T01:15:28.808Z,1.70
2022-11-21T01:16:30.634Z,1.60
2022-11-21T01:17:33.061Z,1.60
2022-11-21T01:18:35.074Z,1.85
2022-11-21T01:19:36.527Z,1.65
2022-11-21T01:20:41.170Z,3.10
2022-11-21T01:21:42.693Z,2.03
2022-11-21T01:22:44.282Z,1.73
2022-11-21T01:23:45.901Z,1.65
2022-11-21T01:24:47.409Z,2.10
2022-11-21T01:25:49.185Z,1.55
2022-11-21T01:26:51.159Z,1.90
2022-11-21T01:27:52.631Z,1.60
2022-11-21T01:28:54.867Z,1.67
2022-11-21T01:29:56.380Z,1.80
2022-11-21T01:31:15.866Z,1.50
2022-11-21T01:32:17.287Z,1.73
2022-11-21T01:33:18.734Z,2.00
2022-11-21T01:34:20.173Z,1.98
2022-11-21T01:35:21.756Z,1.42
2022-11-21T01:36:28.623Z,1.83
2022-11-21T01:37:30.090Z,1.73
2022-11-21T01:38:33.552Z,1.80
2022-11-21T01:39:35.021Z,1.80
2022-11-21T01:40:40.381Z,1.30
2022-11-21T01:41:44.912Z,1.50
2022-11-21T01:42:54.246Z,1.60
2022-11-21T01:43:55.691Z,1.80
2022-11-21T01:44:57.124Z,1.77
2022-11-21T01:46:07.903Z,1.70
2022-11-21T01:47:09.714Z,1.50
2022-11-21T01:48:11.627Z,1.52
2022-11-21T01:49:24.504Z,1.45
2022-11-21T01:50:25.912Z,1.30
2022-11-21T01:51:33.317Z,1.67
2022-11-21T01:52:34.941Z,1.63
2022-11-21T01:53:37.722Z,1.52
2022-11-21T01:54:44.802Z,1.30
2022-11-21T01:55:46.428Z,1.38
2022-11-21T01:57:00.009Z,1.92
2022-11-21T01:58:02.340Z,1.30
2022-11-21T01:59:05.257Z,1.65
2022-11-21T02:00:12.500Z,1.20
2022-11-21T02:01:14.171Z,1.55
2022-11-21T02:02:21.099Z,1.40
2022-11-21T02:03:27.130Z,1.48
2022-11-21T02:04:31.302Z,1.63
2022-11-21T02:05:36.100Z,1.50
2022-11-21T02:06:37.800Z,1.48
2022-11-21T02:07:43.307Z,1.50
2022-11-21T02:08:45.428Z,1.60
2022-11-21T02:09:51.379Z,1.30
2022-11-21T02:11:12.374Z,1.48
2022-11-21T02:12:24.302Z,1.52
2022-11-21T02:13:26.467Z,1.42
2022-11-21T02:14:29.146Z,1.85
2022-11-21T02:15:30.908Z,1.20
2022-11-21T02:16:33.790Z,1.13
2022-11-21T02:17:35.358Z,1.63
2022-11-21T02:18:36.845Z,1.40
2022-11-21T02:19:54.100Z,1.30
2022-11-21T02:21:07.124Z,1.23
2022-11-21T02:22:18.048Z,1.42
2022-11-21T02:23:30.043Z,1.40
2022-11-21T02:24:49.200Z,1.40
2022-11-21T02:25:51.211Z,1.50
2022-11-21T02:26:53.090Z,1.23
2022-11-21T02:27:59.321Z,1.65
2022-11-21T02:29:00.900Z,1.33
2022-11-21T02:30:05.041Z,1.85
2022-11-21T02:31:06.546Z,1.58
2022-11-21T02:32:08.299Z,1.42
2022-11-21T02:33:11.271Z,1.40
2022-11-21T02:34:12.774Z,1.38
2022-11-21T02:35:16.402Z,1.35
2022-11-21T02:36:38.960Z,1.50
2022-11-21T02:37:41.632Z,1.45
2022-11-21T02:38:43.040Z,1.30
2022-11-21T02:39:47.360Z,1.20
2022-11-21T02:41:03.877Z,1.30
2022-11-21T02:42:08.259Z,1.40
2022-11-21T02:43:30.876Z,1.40
2022-11-21T02:45:10.356Z,1.30
2022-11-21T02:46:11.826Z,1.30
2022-11-21T02:47:13.655Z,1.40
2022-11-21T02:48:15.382Z,1.17
2022-11-21T02:49:24.197Z,1.20
2022-11-21T02:50:29.762Z,1.33
2022-11-21T02:51:31.243Z,1.40
2022-11-21T02:52:32.998Z,1.40
2022-11-21T02:53:34.482Z,1.40
2022-11-21T02:54:35.937Z,1.27
2022-11-21T02:55:38.176Z,1.20
2022-11-21T02:56:39.614Z,1.30
2022-11-21T02:57:41.544Z,1.40
2022-11-21T02:58:43.162Z,1.50
2022-11-21T02:59:44.600Z,1.30
2022-11-21T03:00:46.203Z,1.20
2022-11-21T03:01:48.029Z,1.40
2022-11-21T03:02:49.556Z,1.30
2022-11-21T03:03:50.993Z,1.30
2022-11-21T03:04:52.707Z,1.30
2022-11-21T03:05:54.979Z,1.60
2022-11-21T03:06:56.418Z,1.45
2022-11-21T03:07:58.013Z,1.40
2022-11-21T03:08:59.467Z,1.45
2022-11-21T03:10:00.885Z,1.20
2022-11-21T03:11:02.311Z,1.17
2022-11-21T03:12:10.666Z,1.10
2022-11-21T03:13:12.140Z,1.00
2022-11-21T03:14:13.581Z,1.30
2022-11-21T03:15:15.750Z,0.90
2022-11-21T03:16:17.206Z,1.20
2022-11-21T03:17:19.114Z,1.13
2022-11-21T03:18:20.525Z,1.00
2022-11-21T03:19:21.985Z,0.93
2022-11-21T03:20:23.890Z,1.02
2022-11-21T03:21:25.344Z,1.45
2022-11-21T03:22:26.799Z,1.02
2022-11-21T03:23:28.219Z,1.15
2022-11-21T03:24:29.830Z,1.15
2022-11-21T03:25:31.563Z,0.93
2022-11-21T03:27:34.591Z,0.90
2022-11-21T03:28:36.031Z,0.80
2022-11-21T03:29:37.558Z,0.90
2022-11-21T03:30:39.012Z,1.08
2022-11-21T03:31:40.587Z,1.08
2022-11-21T03:32:42.478Z,1.40
2022-11-21T03:33:43.892Z,1.27
2022-11-21T03:34:45.311Z,1.00
2022-11-21T03:35:48.058Z,1.00
2022-11-21T03:36:49.474Z,1.10
2022-11-21T03:37:51.269Z,1.05
2022-11-21T03:38:54.487Z,0.98
2022-11-21T03:39:55.901Z,0.93
2022-11-21T03:40:57.343Z,1.13
2022-11-21T03:41:58.785Z,1.20
2022-11-21T03:43:05.721Z,1.10
2022-11-21T03:44:09.521Z,1.10
2022-11-21T03:45:11.025Z,1.13
2022-11-21T03:46:12.436Z,1.10
2022-11-21T03:47:13.858Z,1.20
2022-11-21T03:48:15.834Z,1.38
2022-11-21T03:49:17.353Z,1.45
2022-11-21T03:50:20.934Z,1.55
2022-11-21T03:51:22.985Z,0.98
2022-11-21T03:52:24.511Z,1.13
2022-11-21T03:53:26.284Z,1.17
2022-11-21T03:54:27.922Z,1.27
2022-11-21T03:55:29.538Z,1.13
2022-11-21T03:56:31.069Z,1.00
2022-11-21T03:57:32.696Z,1.45
2022-11-21T03:58:34.482Z,1.13
2022-11-21T03:59:35.907Z,1.20
2022-11-21T04:00:37.322Z,1.60
2022-11-21T04:01:38.789Z,1.10
2022-11-21T04:02:40.390Z,1.17
2022-11-21T04:03:43.510Z,1.40
2022-11-21T04:04:44.913Z,1.20
2022-11-21T04:05:46.385Z,1.15
2022-11-21T04:06:48.058Z,1.13
2022-11-21T04:07:50.149Z,1.10
2022-11-21T04:08:52.211Z,1.30
2022-11-21T04:09:53.654Z,1.23
2022-11-21T04:10:55.333Z,1.60
2022-11-21T04:11:56.785Z,1.48
2022-11-21T04:12:58.385Z,1.50
2022-11-21T04:14:00.135Z,1.35
2022-11-21T04:15:01.719Z,1.52
2022-11-21T04:16:03.586Z,1.25
2022-11-21T04:17:05.352Z,1.38
2022-11-21T04:18:06.858Z,1.38
2022-11-21T04:19:09.159Z,1.10
2022-11-21T04:20:11.656Z,1.20
2022-11-21T04:21:13.153Z,1.27
2022-11-21T04:22:14.590Z,1.15
2022-11-21T04:23:16.113Z,1.38
2022-11-21T04:24:18.124Z,1.55
2022-11-21T04:25:19.585Z,1.13
2022-11-21T04:26:21.084Z,1.35
2022-11-21T04:27:22.575Z,1.40
2022-11-21T04:28:24.100Z,1.35
2022-11-21T04:29:26.020Z,1.27
2022-11-21T04:30:28.910Z,1.33
2022-11-21T04:31:30.367Z,1.40
2022-11-21T04:32:31.939Z,1.35
2022-11-21T04:33:33.617Z,1.40
2022-11-21T04:34:35.410Z,1.42
2022-11-21T04:35:36.985Z,1.80
2022-11-21T04:36:38.501Z,1.30
2022-11-21T04:37:40.011Z,1.33
2022-11-21T04:38:41.474Z,1.35
2022-11-21T04:39:43.333Z,1.40
2022-11-21T04:40:45.429Z,1.58
2022-11-21T04:41:46.918Z,1.20
2022-11-21T04:42:49.131Z,1.30
2022-11-21T04:43:50.567Z,1.30
2022-11-21T04:44:52.196Z,1.75
2022-11-21T04:45:53.977Z,1.58
2022-11-21T04:46:55.589Z,1.30
2022-11-21T04:47:57.052Z,1.30
2022-11-21T04:48:58.545Z,1.35
2022-11-21T04:50:00.288Z,1.30
2022-11-21T04:51:01.814Z,1.25
2022-11-21T04:52:03.528Z,1.17
2022-11-21T04:53:04.967Z,1.38
2022-11-21T04:54:06.396Z,1.38
2022-11-21T04:55:09.298Z,1.30
2022-11-21T04:56:11.238Z,1.48
2022-11-21T04:57:12.685Z,1.10
2022-11-21T04:58:14.216Z,1.45
2022-11-21T04:59:15.712Z,1.20
2022-11-21T05:00:23.779Z,1.30
2022-11-21T05:01:25.834Z,1.30
2022-11-21T05:02:27.366Z,1.63
2022-11-21T05:03:28.766Z,1.52
2022-11-21T05:04:30.427Z,1.65
2022-11-21T05:05:32.953Z,1.27
2022-11-21T05:06:34.684Z,1.23
2022-11-21T05:07:37.222Z,1.40
2022-11-21T05:08:38.637Z,1.25
2022-11-21T05:09:40.181Z,1.33
2022-11-21T05:11:02.363Z,1.17
2022-11-21T05:12:22.513Z,1.27
2022-11-21T05:13:24.602Z,1.00
2022-11-21T05:14:27.022Z,1.25
2022-11-21T05:15:28.700Z,1.00
2022-11-21T05:16:30.121Z,1.23
2022-11-21T05:17:31.595Z,1.00
2022-11-21T05:18:33.075Z,1.25
2022-11-21T05:19:34.614Z,1.10
2022-11-21T05:20:37.040Z,1.40
2022-11-21T05:21:38.588Z,1.27
2022-11-21T05:22:40.027Z,1.30
2022-11-21T05:23:41.497Z,1.20
2022-11-21T05:24:42.913Z,1.30
2022-11-21T05:25:44.414Z,1.25
2022-11-21T05:26:45.858Z,1.10
2022-11-21T05:27:47.329Z,1.05
2022-11-21T05:28:48.815Z,1.00
2022-11-21T05:29:50.246Z,1.02
2022-11-21T05:30:52.052Z,1.20
2022-11-21T05:31:53.501Z,1.00
2022-11-21T05:32:55.108Z,1.20
2022-11-21T05:33:56.786Z,1.20
2022-11-21T05:34:58.212Z,1.33
2022-11-21T05:35:59.697Z,1.20
2022-11-21T05:37:01.402Z,1.35
2022-11-21T05:38:03.880Z,1.10
2022-11-21T05:39:05.672Z,1.20
2022-11-21T05:40:07.863Z,1.25
2022-11-21T05:41:09.738Z,1.10
2022-11-21T05:42:11.164Z,1.60
2022-11-21T05:43:31.155Z,1.20
2022-11-21T05:44:32.585Z,1.20
2022-11-21T05:45:34.463Z,1.20
2022-11-21T05:46:35.888Z,1.30
2022-11-21T05:47:37.400Z,1.20
2022-11-21T05:48:38.912Z,1.20
2022-11-21T05:49:40.341Z,1.27
2022-11-21T05:50:41.892Z,1.00
2022-11-21T05:51:43.366Z,1.13
2022-11-21T05:52:44.807Z,1.10
2022-11-21T05:53:46.834Z,1.30
2022-11-21T05:54:48.276Z,1.20
2022-11-21T05:55:50.090Z,1.10
2022-11-21T05:56:51.564Z,1.20
2022-11-21T05:57:52.970Z,1.10
2022-11-21T05:58:55.412Z,1.08
2022-11-21T05:59:56.851Z,1.27
2022-11-21T06:01:00.203Z,1.05
2022-11-21T06:02:20.315Z,1.10
2022-11-21T06:03:27.829Z,1.10
2022-11-21T06:04:29.680Z,1.17
2022-11-21T06:05:31.479Z,1.05
2022-11-21T06:06:33.493Z,1.10
2022-11-21T06:07:34.977Z,1.23
2022-11-21T06:08:38.878Z,1.20
2022-11-21T06:09:40.314Z,1.10
2022-11-21T06:10:41.794Z,1.25
2022-11-21T06:11:43.436Z,1.10
2022-11-21T06:12:44.876Z,1.35
2022-11-21T06:13:46.328Z,1.30
2022-11-21T06:14:47.776Z,1.10
2022-11-21T06:16:00.366Z,1.08
2022-11-21T06:17:02.109Z,1.42
2022-11-21T06:18:03.638Z,1.42
2022-11-21T06:19:05.195Z,1.20
2022-11-21T06:20:07.281Z,1.10
2022-11-21T06:21:14.796Z,1.20
2022-11-21T06:22:16.312Z,1.00
2022-11-21T06:23:17.749Z,1.27
2022-11-21T06:24:22.194Z,1.10
2022-11-21T06:25:23.937Z,0.93
2022-11-21T06:26:27.845Z,1.00
2022-11-21T06:27:29.850Z,1.10
2022-11-21T06:28:36.270Z,1.15
2022-11-21T06:29:38.170Z,0.90
2022-11-21T06:30:39.646Z,1.05
2022-11-21T06:31:41.099Z,1.02
2022-11-21T06:32:42.935Z,1.10
2022-11-21T06:33:45.377Z,1.00
2022-11-21T06:34:46.794Z,0.95
2022-11-21T06:35:50.559Z,1.10
2022-11-21T06:36:52.338Z,1.15
2022-11-21T06:37:53.955Z,1.10
2022-11-21T06:38:56.210Z,1.20
2022-11-21T06:39:57.752Z,1.10
2022-11-21T06:41:07.750Z,0.90
2022-11-21T06:42:09.191Z,1.02
2022-11-21T06:43:10.818Z,1.13
2022-11-21T06:44:12.667Z,0.95
2022-11-21T06:45:14.218Z,1.10
2022-11-21T06:46:16.923Z,1.38
2022-11-21T06:47:18.327Z,1.00
2022-11-21T06:48:19.805Z,0.90
2022-11-21T06:49:22.215Z,0.98
2022-11-21T06:50:23.717Z,1.15
2022-11-21T06:51:26.079Z,1.10
2022-11-21T06:52:27.494Z,1.00
2022-11-21T06:53:28.938Z,1.10
2022-11-21T06:54:30.695Z,1.10
2022-11-21T06:55:32.281Z,1.02
2022-11-21T06:56:34.035Z,0.80
2022-11-21T06:57:35.482Z,1.02
2022-11-21T06:58:37.301Z,1.10
2022-11-21T06:59:38.900Z,1.10
2022-11-21T07:00:40.413Z,0.93
2022-11-21T07:01:42.275Z,1.10
2022-11-21T07:02:43.738Z,1.15
2022-11-21T07:03:45.169Z,1.33
2022-11-21T07:04:47.001Z,0.98
2022-11-21T07:05:49.151Z,1.05
2022-11-21T07:06:50.964Z,1.13
2022-11-21T07:07:52.391Z,1.00
2022-11-21T07:09:17.561Z,1.10
2022-11-21T07:10:16.038Z,1.00
2022-11-21T07:11:25.656Z,1.13
2022-11-21T07:12:46.186Z,1.10
2022-11-21T07:13:47.666Z,1.10
2022-11-21T07:14:49.085Z,1.00
2022-11-21T07:15:54.007Z,1.00
2022-11-21T07:16:55.880Z,1.20
2022-11-21T07:17:59.024Z,1.30
2022-11-21T07:19:00.514Z,1.15
2022-11-21T07:20:01.937Z,1.27
2022-11-21T07:21:05.476Z,1.10
2022-11-21T07:22:08.453Z,1.40
2022-11-21T07:23:10.374Z,1.10
2022-11-21T07:24:12.225Z,1.10
2022-11-21T07:25:13.731Z,1.02
2022-11-21T07:26:15.137Z,1.00
2022-11-21T07:27:16.898Z,1.08
2022-11-21T07:28:18.408Z,1.10
2022-11-21T07:29:19.835Z,1.40
2022-11-21T07:30:21.275Z,1.10
2022-11-21T07:31:23.074Z,1.15
2022-11-21T07:32:25.977Z,1.05
2022-11-21T07:33:27.767Z,1.20
2022-11-21T07:34:29.328Z,1.20
2022-11-21T07:35:30.890Z,1.08
2022-11-21T07:36:32.835Z,1.15
2022-11-21T07:37:39.164Z,1.40
2022-11-21T07:38:41.386Z,1.05
2022-11-21T07:39:43.311Z,1.30
2022-11-21T07:40:44.750Z,1.27
2022-11-21T07:41:46.528Z,1.10
2022-11-21T07:42:48.013Z,1.20
2022-11-21T07:43:49.472Z,1.30
2022-11-21T07:44:50.916Z,1.30
2022-11-21T07:45:52.327Z,1.20
2022-11-21T07:46:55.513Z,1.40
2022-11-21T07:48:01.278Z,1.10
2022-11-21T07:49:03.726Z,1.15
2022-11-21T07:50:06.581Z,1.50
2022-11-21T07:51:08.032Z,1.25
2022-11-21T07:52:09.449Z,1.30
2022-11-21T07:53:14.042Z,1.50
2022-11-21T07:54:15.454Z,1.40
2022-11-21T07:55:17.212Z,1.30
2022-11-21T07:56:19.462Z,1.20
2022-11-21T07:57:20.874Z,1.48
2022-11-21T07:58:22.766Z,1.50
2022-11-21T07:59:24.194Z,1.15
2022-11-21T08:00:26.817Z,1.27
2022-11-21T08:01:28.353Z,1.30
2022-11-21T08:02:29.860Z,1.20
2022-11-21T08:03:34.491Z,1.38
2022-11-21T08:04:35.908Z,1.15
2022-11-21T08:05:46.453Z,1.35
2022-11-21T08:06:48.214Z,1.30
2022-11-21T08:07:49.747Z,1.27
2022-11-21T08:08:55.073Z,1.40
2022-11-21T08:09:56.718Z,1.30
2022-11-21T08:10:58.164Z,1.63
2022-11-21T08:11:59.742Z,1.23
2022-11-21T08:13:01.178Z,1.38
2022-11-21T08:14:03.125Z,1.40
2022-11-21T08:15:06.807Z,1.40
2022-11-21T08:16:08.268Z,1.50
2022-11-21T08:17:09.736Z,1.30
2022-11-21T08:18:13.598Z,1.45
2022-11-21T08:19:15.014Z,1.20
2022-11-21T08:20:17.205Z,1.20
2022-11-21T08:21:20.116Z,1.20
2022-11-21T08:24:24.421Z,1.20
2022-11-21T08:25:25.832Z,1.20
2022-11-21T08:26:27.615Z,1.23
2022-11-21T08:27:29.016Z,1.20
2022-11-21T08:28:30.470Z,1.35
2022-11-21T08:29:31.866Z,1.15
2022-11-21T08:30:34.563Z,1.50
2022-11-21T08:31:37.383Z,1.20
2022-11-21T08:32:38.861Z,1.20
2022-11-21T08:33:40.263Z,1.33
2022-11-21T08:34:41.669Z,1.23
2022-11-21T08:35:43.447Z,1.20
2022-11-21T08:36:44.926Z,1.30
2022-11-21T08:37:46.477Z,1.42
2022-11-21T08:38:47.914Z,1.23
2022-11-21T08:39:49.371Z,1.20
2022-11-21T08:41:16.119Z,1.02
2022-11-21T08:42:19.007Z,1.15
2022-11-21T08:43:20.431Z,1.10
2022-11-21T08:44:21.840Z,1.10
2022-11-21T08:45:23.640Z,1.35
2022-11-21T08:46:27.795Z,1.10
2022-11-21T08:47:29.196Z,1.20
2022-11-21T08:48:30.605Z,1.40
2022-11-21T08:49:32.383Z,1.02
2022-11-21T08:50:34.133Z,1.20
2022-11-21T08:51:35.804Z,1.17
2022-11-21T08:52:37.233Z,1.20
2022-11-21T08:53:38.620Z,1.00
2022-11-21T08:54:40.072Z,1.20
2022-11-21T08:55:41.827Z,1.20
2022-11-21T08:56:43.898Z,1.00
2022-11-21T08:57:45.301Z,0.98
2022-11-21T08:58:46.722Z,1.05
2022-11-21T08:59:48.169Z,1.10
2022-11-21T09:00:50.077Z,1.50
2022-11-21T09:01:52.914Z,0.95
2022-11-21T09:07:01.946Z,0.90
2022-11-21T09:08:03.522Z,1.00
2022-11-21T09:09:06.320Z,0.90
2022-11-21T09:10:08.213Z,1.00
2022-11-21T09:11:10.267Z,1.25
2022-11-21T09:12:11.652Z,1.10
2022-11-21T09:13:13.139Z,1.10
2022-11-21T09:14:33.095Z,1.15
2022-11-21T09:15:53.294Z,1.20
2022-11-21T09:17:33.070Z,1.13
2022-11-21T09:19:35.926Z,1.30
2022-11-21T09:20:42.478Z,0.93
2022-11-21T09:21:44.027Z,1.30
2022-11-21T09:22:45.401Z,1.20
2022-11-21T09:23:46.966Z,1.17
2022-11-21T09:24:48.571Z,1.33
2022-11-21T09:25:50.436Z,1.20
2022-11-21T09:26:51.851Z,1.27
2022-11-21T09:27:53.277Z,1.40
2022-11-21T09:28:54.681Z,1.20
2022-11-21T09:29:56.161Z,1.20
2022-11-21T09:30:59.157Z,1.42
2022-11-21T09:32:00.719Z,1.10
2022-11-21T09:33:03.742Z,1.48
2022-11-21T09:36:08.574Z,1.20
2022-11-21T09:37:10.341Z,1.42
2022-11-21T09:38:11.787Z,1.25
2022-11-21T09:39:13.219Z,1.23
2022-11-21T09:40:16.767Z,1.30
2022-11-21T09:41:46.215Z,1.30
2022-11-21T09:43:10.281Z,1.10
2022-11-21T09:44:11.646Z,1.08
2022-11-21T09:45:27.356Z,1.55
2022-11-21T09:46:37.343Z,1.40
2022-11-21T09:47:45.429Z,1.40
2022-11-21T09:49:04.812Z,1.30
2022-11-21T09:50:24.274Z,1.60
2022-11-21T09:51:29.753Z,1.50
2022-11-21T09:52:38.918Z,1.40
2022-11-21T09:54:57.926Z,1.13
2022-11-21T09:56:04.957Z,1.10
2022-11-21T09:57:06.427Z,1.20
2022-11-21T09:58:32.658Z,1.10
2022-11-21T09:59:37.179Z,1.23
2022-11-21T10:00:38.755Z,1.30
2022-11-21T10:01:40.721Z,1.10
2022-11-21T10:02:42.336Z,1.27
2022-11-21T10:03:47.413Z,1.27
2022-11-21T10:04:50.480Z,1.20
2022-11-21T10:05:54.264Z,1.30
2022-11-21T10:07:03.221Z,1.02
2022-11-21T10:08:16.914Z,1.27
2022-11-21T10:09:24.451Z,1.10
2022-11-21T10:10:34.349Z,1.33
2022-11-21T10:11:59.015Z,1.20
2022-11-21T10:13:43.364Z,1.45
2022-11-21T10:15:14.217Z,1.23
2022-11-21T10:16:28.657Z,1.10
2022-11-21T10:17:48.657Z,1.40
2022-11-21T10:19:08.786Z,1.20
2022-11-21T10:20:31.432Z,1.13
2022-11-21T10:21:37.584Z,1.30
2022-11-21T10:22:54.362Z,1.10
2022-11-21T10:24:08.854Z,1.25
2022-11-21T10:25:21.701Z,1.30
2022-11-21T10:26:42.128Z,1.40
2022-11-21T10:27:52.721Z,1.25
2022-11-21T10:29:27.518Z,1.17
2022-11-21T10:30:29.811Z,1.30
2022-11-21T10:31:37.033Z,1.45
2022-11-21T10:32:43.192Z,1.20
2022-11-21T10:33:45.559Z,1.23
2022-11-21T10:34:50.194Z,1.40
2022-11-21T10:35:55.714Z,1.27
2022-11-21T10:37:01.973Z,1.40
2022-11-21T10:38:16.958Z,1.13
2022-11-21T10:39:33.332Z,1.30
2022-11-21T10:41:12.446Z,1.30
2022-11-21T10:42:32.623Z,1.30
2022-11-21T10:44:31.495Z,1.50
2022-11-21T10:45:32.891Z,1.30
2022-11-21T10:46:34.713Z,1.27
2022-11-21T10:47:37.795Z,1.25
2022-11-21T10:48:39.211Z,1.23
2022-11-21T10:49:42.273Z,1.10
2022-11-21T10:52:00.639Z,1.20
2022-11-21T10:53:36.260Z,1.25
2022-11-21T10:55:02.445Z,1.13
2022-11-21T10:56:12.696Z,1.20
2022-11-21T10:57:18.689Z,1.40
2022-11-21T10:58:33.281Z,1.27
2022-11-21T10:59:34.780Z,1.27
2022-11-21T11:00:37.604Z,1.23
2022-11-21T11:01:39.401Z,1.30
2022-11-21T11:02:43.147Z,1.25
2022-11-21T11:04:00.976Z,1.30
2022-11-21T11:06:28.161Z,1.30
2022-11-21T11:07:29.624Z,1.20
2022-11-21T11:08:51.567Z,1.60
2022-11-21T11:10:13.645Z,1.40
2022-11-21T11:11:20.614Z,1.40
2022-11-21T11:12:51.009Z,1.40
2022-11-21T11:14:04.576Z,1.73
2022-11-21T11:15:16.563Z,1.17
2022-11-21T11:16:21.406Z,1.70
2022-11-21T11:17:41.749Z,1.20
2022-11-21T11:19:08.460Z,1.40
2022-11-21T11:20:38.713Z,1.38
2022-11-21T11:21:41.167Z,1.38
2022-11-21T11:22:42.641Z,1.35
2022-11-21T11:23:45.397Z,1.20
2022-11-21T11:24:57.658Z,1.60
2022-11-21T11:26:03.677Z,1.40
2022-11-21T11:27:05.158Z,1.30
2022-11-21T11:28:09.203Z,1.60
2022-11-21T11:29:21.701Z,1.60
2022-11-21T11:30:23.186Z,1.30
2022-11-21T11:31:25.063Z,1.50
2022-11-21T11:32:26.535Z,1.40
2022-11-21T11:33:29.558Z,1.48
2022-11-21T11:35:40.451Z,1.20
2022-11-21T11:36:54.544Z,1.40
2022-11-21T11:38:05.788Z,1.35
2022-11-21T11:39:18.759Z,1.40
2022-11-21T11:40:41.970Z,1.10
2022-11-21T11:42:17.303Z,1.20
2022-11-21T11:43:51.383Z,1.58
2022-11-21T11:45:17.192Z,1.20
2022-11-21T11:47:02.076Z,1.20
2022-11-21T11:48:10.576Z,1.30
2022-11-21T11:49:21.302Z,1.42
2022-11-21T11:50:32.890Z,1.60
2022-11-21T11:51:44.968Z,1.33
2022-11-21T11:52:52.439Z,1.20
2022-11-21T11:54:01.098Z,1.20
2022-11-21T11:55:14.459Z,1.40
2022-11-21T11:56:32.973Z,1.33
2022-11-21T11:57:37.324Z,1.30
2022-11-21T11:58:43.572Z,1.70
2022-11-21T11:59:51.045Z,1.50
2022-11-21T12:01:03.539Z,1.50
2022-11-21T12:02:20.525Z,1.33
2022-11-21T12:03:31.759Z,1.40
2022-11-21T12:04:44.179Z,1.38
2022-11-21T12:05:56.732Z,1.33
2022-11-21T12:08:45.041Z,1.30
2022-11-21T12:09:50.694Z,1.40
2022-11-21T12:11:23.696Z,1.30
2022-11-21T12:12:36.200Z,1.33
2022-11-21T12:13:39.811Z,1.10
2022-11-21T12:15:08.266Z,1.15
2022-11-21T12:16:14.378Z,1.20
2022-11-21T12:17:19.360Z,1.20
2022-11-21T12:18:20.822Z,1.17
2022-11-21T12:19:22.480Z,1.27
2022-11-21T12:20:37.002Z,1.30
2022-11-21T12:21:38.478Z,1.00
2022-11-21T12:22:39.959Z,0.95
2022-11-21T12:23:49.668Z,1.10
2022-11-21T12:24:51.145Z,0.90
2022-11-21T12:26:36.322Z,0.90
2022-11-21T12:27:41.233Z,1.10
2022-11-21T12:29:04.087Z,1.33
2022-11-21T12:30:14.873Z,1.00
2022-11-21T12:31:47.192Z,1.00
2022-11-21T12:33:08.170Z,1.00
2022-11-21T12:34:25.149Z,1.05
2022-11-21T12:35:40.516Z,1.00
2022-11-21T12:36:56.576Z,0.80
2022-11-21T12:38:06.942Z,0.93
2022-11-21T12:39:09.520Z,1.00
2022-11-21T12:40:19.939Z,1.02
2022-11-21T12:42:08.145Z,1.10
2022-11-21T12:43:24.665Z,1.08
2022-11-21T12:44:47.150Z,1.00
2022-11-21T12:46:10.702Z,1.02
2022-11-21T12:47:18.130Z,1.10
2022-11-21T12:48:57.084Z,1.20
2022-11-21T12:50:20.014Z,1.08
2022-11-21T12:51:46.090Z,1.10
2022-11-21T12:53:18.698Z,1.08
2022-11-21T12:54:32.024Z,1.38
2022-11-21T12:55:39.989Z,1.10
2022-11-21T12:56:49.634Z,1.10
2022-11-21T12:58:03.804Z,1.00
2022-11-21T12:59:07.598Z,1.23
2022-11-21T13:00:14.563Z,1.25
2022-11-21T13:01:39.545Z,1.25
2022-11-21T13:03:02.900Z,1.10
2022-11-21T13:04:11.474Z,1.40
2022-11-21T13:05:21.144Z,1.20
2022-11-21T13:06:28.556Z,1.23
2022-11-21T13:07:32.554Z,1.30
2022-11-21T13:08:37.000Z,1.58
2022-11-21T13:09:46.494Z,1.23
2022-11-21T13:11:19.339Z,1.15
2022-11-21T13:12:35.170Z,1.17
2022-11-21T13:13:39.226Z,1.23
2022-11-21T13:14:48.201Z,1.10
2022-11-21T13:17:29.247Z,0.90
2022-11-21T13:18:36.085Z,1.20
2022-11-21T13:19:52.542Z,1.23
2022-11-21T13:20:54.017Z,1.20
2022-11-21T13:21:55.574Z,1.30
2022-11-21T13:22:59.834Z,1.33
2022-11-21T13:24:01.270Z,1.42
2022-11-21T13:25:09.425Z,1.10
2022-11-21T13:26:25.756Z,1.23
2022-11-21T13:27:37.913Z,1.17
2022-11-21T13:28:40.309Z,1.13
2022-11-21T13:30:07.747Z,1.63
2022-11-21T13:31:30.361Z,1.10
2022-11-21T13:32:51.503Z,1.20
2022-11-21T13:33:53.301Z,1.25
2022-11-21T13:34:54.763Z,1.33
2022-11-21T13:35:56.538Z,1.30
2022-11-21T13:36:58.959Z,1.35
2022-11-21T13:38:06.840Z,1.40
2022-11-21T13:39:08.341Z,1.30
2022-11-21T13:40:28.359Z,1.30
2022-11-21T13:41:54.886Z,1.25
2022-11-21T13:43:31.205Z,1.30
2022-11-21T13:44:32.854Z,1.15
2022-11-21T13:45:39.547Z,1.10
2022-11-21T13:47:09.715Z,1.35
2022-11-21T13:48:39.161Z,1.00
2022-11-21T13:49:43.579Z,1.13
2022-11-21T13:50:48.125Z,1.10
2022-11-21T13:51:54.397Z,1.30
2022-11-21T13:53:04.674Z,1.17
2022-11-21T13:54:06.048Z,1.17
2022-11-21T13:55:45.389Z,1.20
2022-11-21T13:57:11.531Z,1.50
2022-11-21T13:58:40.724Z,1.25
2022-11-21T13:59:57.163Z,1.10
2022-11-21T14:01:32.803Z,1.60
2022-11-21T14:02:46.111Z,1.55
2022-11-21T14:04:17.797Z,1.40
2022-11-21T14:05:38.021Z,1.92
2022-11-21T14:06:43.733Z,3.38
2022-11-21T14:07:46.211Z,1.83
2022-11-21T14:09:26.431Z,1.30
2022-11-21T14:10:36.003Z,1.38
2022-11-21T14:11:49.710Z,1.30
2022-11-21T14:12:54.506Z,1.17
2022-11-21T14:13:56.024Z,1.60
2022-11-21T14:15:00.428Z,1.60
2022-11-21T14:16:26.325Z,1.27
2022-11-21T14:17:47.285Z,1.20
2022-11-21T14:18:49.717Z,1.25
2022-11-21T14:19:56.516Z,1.20
2022-11-21T14:21:00.522Z,1.38
2022-11-21T14:22:02.150Z,1.38
2022-11-21T14:23:18.229Z,1.27
2022-11-21T14:24:20.042Z,1.38
2022-11-21T14:25:34.076Z,1.45
2022-11-21T14:26:42.124Z,1.30
2022-11-21T14:27:48.715Z,1.10
2022-11-21T14:28:50.316Z,1.30
2022-11-21T14:29:51.784Z,1.45
2022-11-21T14:30:58.975Z,1.40
2022-11-21T14:32:00.513Z,1.50
2022-11-21T14:33:25.267Z,1.70
2022-11-21T14:34:31.592Z,2.72
2022-11-21T14:35:34.277Z,8.98
2022-11-21T14:36:35.832Z,10.30
2022-11-21T14:37:42.226Z,8.00
2022-11-21T14:38:45.048Z,6.78
2022-11-21T14:39:52.736Z,4.95
2022-11-21T14:41:25.609Z,3.90
2022-11-21T14:42:35.915Z,2.80
2022-11-21T14:43:38.324Z,2.10
2022-11-21T14:44:39.754Z,1.75
2022-11-21T14:45:49.172Z,1.42
2022-11-21T14:46:52.310Z,1.50
2022-11-21T14:47:54.803Z,1.25
2022-11-21T14:48:59.840Z,1.60
2022-11-21T14:50:07.169Z,1.30
2022-11-21T14:51:11.019Z,1.30
2022-11-21T14:52:17.359Z,1.40
2022-11-21T14:53:19.005Z,1.33
2022-11-21T14:54:23.562Z,1.10
2022-11-21T14:55:31.652Z,1.20
2022-11-21T14:56:34.432Z,1.20
2022-11-21T14:57:42.444Z,1.42